createdAt,value
2019-04-25T00:02:17.311Z,113.11
2019-04-25T00:05:22.754Z,113.83
2019-04-25T00:08:29.085Z,115.32
2019-04-25T00:11:35.493Z,115.92
2019-04-25T00:14:41.676Z,116.86
2019-04-25T00:17:48.267Z,117.28
2019-04-25T00:20:57.989Z,117.29
2019-04-25T00:24:08.804Z,117.67
2019-04-25T00:27:14.114Z,117.85
2019-04-25T00:30:22.552Z,118.09
2019-04-25T00:33:28.150Z,118.44
2019-04-25T00:36:33.528Z,118.84
2019-04-25T00:39:39.033Z,118.95
2019-04-25T00:42:44.902Z,118.82
2019-04-25T00:45:51.696Z,119.00
2019-04-25T00:48:57.523Z,119.00
2019-04-25T00:52:02.784Z,119.00
2019-04-25T00:55:08.094Z,119.00
2019-04-25T00:58:31.498Z,118.97
2019-04-25T01:01:51.906Z,118.61
2019-04-25T01:04:58.445Z,118.66
2019-04-25T01:08:03.820Z,118.36
2019-04-25T01:11:09.093Z,118.29
2019-04-25T01:14:15.978Z,118.50
2019-04-25T01:17:22.829Z,119.00
2019-04-25T01:20:30.570Z,119.00
2019-04-25T01:23:35.820Z,119.00
2019-04-25T01:26:41.128Z,119.00
2019-04-25T01:29:47.766Z,118.60
2019-04-25T01:32:54.558Z,117.23
2019-04-25T01:36:05.803Z,117.02
2019-04-25T01:39:34.163Z,117.04
2019-04-25T01:43:06.703Z,117.44
2019-04-25T01:46:13.459Z,117.64
2019-04-25T01:49:19.170Z,117.77
2019-04-25T01:52:25.609Z,117.61
2019-04-25T01:55:30.998Z,117.62
2019-04-25T01:58:36.335Z,118.06
2019-04-25T02:01:41.880Z,118.77
2019-04-25T02:04:49.438Z,119.00
2019-04-25T02:07:55.781Z,119.00
2019-04-25T02:11:24.009Z,119.00
2019-04-25T02:14:30.891Z,119.00
2019-04-25T02:17:36.219Z,119.00
2019-04-25T02:20:41.444Z,119.00
2019-04-25T02:23:46.800Z,119.00
2019-04-25T02:26:54.478Z,119.00
2019-04-25T02:29:59.237Z,119.00
2019-04-25T02:33:09.013Z,119.00
2019-04-25T02:36:15.218Z,117.62
2019-04-25T02:39:21.829Z,116.35
2019-04-25T02:42:27.323Z,115.49
2019-04-25T02:45:49.288Z,114.69
2019-04-25T02:49:35.462Z,113.85
2019-04-25T02:52:36.704Z,113.08
2019-04-25T02:55:44.498Z,113.17
2019-04-25T02:58:49.484Z,112.05
2019-04-25T03:01:54.784Z,111.34
2019-04-25T03:05:01.230Z,111.22
2019-04-25T03:08:09.007Z,111.59
2019-04-25T03:11:14.950Z,111.86
2019-04-25T03:14:20.579Z,112.79
2019-04-25T03:17:25.893Z,112.69
2019-04-25T03:20:37.323Z,112.11
2019-04-25T03:23:46.229Z,110.92
2019-04-25T03:26:50.734Z,111.03
2019-04-25T03:29:56.054Z,111.41
2019-04-25T03:33:03.744Z,111.44
2019-04-25T03:36:09.609Z,112.02
2019-04-25T03:39:16.494Z,111.91
2019-04-25T03:42:21.918Z,112.20
2019-04-25T03:45:27.218Z,112.53
2019-04-25T03:48:36.389Z,111.31
2019-04-25T03:51:41.818Z,111.50
2019-04-25T03:54:47.102Z,111.37
2019-04-25T03:57:53.815Z,110.33
2019-04-25T04:00:59.241Z,110.55
2019-04-25T04:04:07.976Z,111.18
2019-04-25T04:07:14.738Z,110.18
2019-04-25T04:10:21.290Z,110.81
2019-04-25T04:13:26.624Z,109.20
2019-04-25T04:16:35.800Z,108.86
2019-04-25T04:19:58.201Z,107.67
2019-04-25T04:23:21.052Z,109.28
2019-04-25T04:26:26.409Z,103.83
2019-04-25T04:29:33.079Z,97.83
2019-04-25T04:32:38.642Z,93.62
2019-04-25T04:35:44.240Z,89.53
2019-04-25T04:38:49.692Z,88.48
2019-04-25T04:41:55.504Z,86.81
2019-04-25T04:45:00.974Z,85.56
2019-04-25T04:48:06.322Z,82.03
2019-04-25T04:51:13.042Z,81.51
2019-04-25T04:54:19.265Z,81.89
2019-04-25T04:57:31.966Z,77.50
2019-04-25T05:00:31.598Z,77.93
2019-04-25T05:03:55.862Z,72.31
2019-04-25T05:07:07.133Z,68.97
2019-04-25T05:10:14.371Z,68.95
2019-04-25T05:13:20.513Z,68.99
2019-04-25T05:16:25.807Z,66.45
2019-04-25T05:19:31.107Z,63.26
2019-04-25T05:22:36.381Z,69.93
2019-04-25T05:25:41.733Z,67.80
2019-04-25T05:28:47.547Z,67.95
2019-04-25T05:31:54.417Z,68.37
2019-04-25T05:35:00.713Z,62.21
2019-04-25T05:38:05.978Z,64.51
2019-04-25T05:41:24.150Z,61.94
2019-04-25T05:44:29.541Z,60.42
2019-04-25T05:47:34.857Z,65.61
2019-04-25T05:50:40.202Z,60.49
2019-04-25T05:53:47.142Z,60.65
2019-04-25T05:56:53.777Z,59.11
2019-04-25T05:59:59.214Z,60.76
2019-04-25T06:03:04.634Z,54.44
2019-04-25T06:06:09.886Z,59.12
2019-04-25T06:09:33.726Z,59.91
2019-04-25T06:12:46.807Z,55.97
2019-04-25T06:15:53.934Z,57.72
2019-04-25T06:19:18.446Z,51.16
2019-04-25T06:22:32.965Z,53.62
2019-04-25T06:25:39.843Z,51.48
2019-04-25T06:28:53.817Z,51.76
2019-04-25T06:32:06.020Z,49.12
2019-04-25T06:35:08.274Z,53.18
2019-04-25T06:38:13.889Z,53.40
2019-04-25T06:41:19.277Z,57.35
2019-04-25T06:44:36.343Z,62.20
2019-04-25T06:48:11.198Z,65.68
2019-04-25T06:51:16.523Z,63.77
2019-04-25T06:54:21.972Z,65.07
2019-04-25T06:57:30.237Z,67.84
2019-04-25T07:00:41.247Z,67.22
2019-04-25T07:03:44.218Z,65.94
2019-04-25T07:06:50.786Z,68.77
2019-04-25T07:09:57.127Z,62.07
2019-04-25T07:13:04.319Z,63.74
2019-04-25T07:16:09.748Z,66.87
2019-04-25T07:19:17.515Z,64.58
2019-04-25T07:22:23.811Z,61.76
2019-04-25T07:25:31.454Z,65.54
2019-04-25T07:28:58.452Z,63.16
2019-04-25T07:32:29.609Z,65.35
2019-04-25T07:35:31.594Z,63.42
2019-04-25T07:38:36.860Z,63.99
2019-04-25T07:41:42.094Z,63.94
2019-04-25T07:44:52.490Z,61.68
2019-04-25T07:47:55.512Z,65.25
2019-04-25T07:51:00.836Z,62.81
2019-04-25T07:54:06.571Z,62.12
2019-04-25T07:57:13.577Z,61.72
2019-04-25T08:00:19.538Z,61.58
2019-04-25T08:03:24.852Z,60.78
2019-04-25T08:06:30.177Z,60.83
2019-04-25T08:09:36.786Z,58.56
2019-04-25T08:12:44.447Z,58.23
2019-04-25T08:15:54.143Z,60.62
2019-04-25T08:19:01.637Z,60.43
2019-04-25T08:22:07.939Z,58.88
2019-04-25T08:25:13.798Z,58.97
2019-04-25T08:28:19.291Z,63.04
2019-04-25T08:31:24.641Z,56.06
2019-04-25T08:34:30.857Z,59.91
2019-04-25T08:37:36.618Z,56.41
2019-04-25T08:40:43.932Z,57.43
2019-04-25T08:43:49.092Z,56.21
2019-04-25T08:46:54.322Z,57.63
2019-04-25T08:50:06.936Z,59.20
2019-04-25T08:53:13.682Z,54.99
2019-04-25T08:56:25.307Z,57.85
2019-04-25T09:00:00.122Z,56.00
2019-04-25T09:03:09.387Z,57.68
2019-04-25T09:06:14.657Z,55.32
2019-04-25T09:09:19.907Z,52.63
2019-04-25T09:12:25.224Z,55.53
2019-04-25T09:15:30.566Z,55.99
2019-04-25T09:18:36.990Z,53.29
2019-04-25T09:21:48.061Z,54.31
2019-04-25T09:24:51.117Z,54.73
2019-04-25T09:27:56.418Z,56.98
2019-04-25T09:31:01.702Z,54.00
2019-04-25T09:34:08.117Z,56.77
2019-04-25T09:37:14.283Z,54.21
2019-04-25T09:40:19.766Z,54.69
2019-04-25T09:43:28.050Z,52.77
2019-04-25T09:46:35.990Z,54.62
2019-04-25T09:49:43.799Z,53.85
2019-04-25T09:52:50.287Z,54.74
2019-04-25T09:56:10.851Z,54.63
2019-04-25T09:59:27.202Z,52.41
2019-04-25T10:02:26.321Z,52.84
2019-04-25T10:05:31.563Z,50.71
2019-04-25T10:08:37.017Z,52.32
2019-04-25T10:11:43.974Z,52.49
2019-04-25T10:15:30.863Z,51.17
2019-04-25T10:18:37.742Z,52.87
2019-04-25T10:21:43.190Z,52.02
2019-04-25T10:24:59.731Z,54.10
2019-04-25T10:27:55.371Z,56.22
2019-04-25T10:31:00.631Z,53.15
2019-04-25T10:34:06.963Z,52.60
2019-04-25T10:37:13.866Z,53.53
2019-04-25T10:40:21.239Z,53.18
2019-04-25T10:43:26.855Z,51.16
2019-04-25T10:46:33.929Z,49.98
2019-04-25T10:49:40.506Z,44.53
2019-04-25T10:52:47.065Z,47.74
2019-04-25T10:55:52.674Z,46.38
2019-04-25T10:58:58.153Z,47.46
2019-04-25T11:02:04.007Z,43.76
2019-04-25T11:05:13.716Z,41.71
2019-04-25T11:08:19.138Z,44.33
2019-04-25T11:11:24.633Z,42.41
2019-04-25T11:14:31.518Z,41.41
2019-04-25T11:17:38.846Z,42.05
2019-04-25T11:20:44.706Z,45.75
2019-04-25T11:23:51.311Z,41.76
2019-04-25T11:26:57.131Z,40.27
2019-04-25T11:30:10.819Z,41.18
2019-04-25T11:33:18.826Z,38.53
2019-04-25T11:36:25.006Z,39.38
2019-04-25T11:39:54.912Z,41.54
2019-04-25T11:43:00.319Z,41.41
2019-04-25T11:46:05.713Z,41.37
2019-04-25T11:49:11.046Z,38.32
2019-04-25T11:52:27.449Z,39.65
2019-04-25T11:55:25.054Z,40.22
2019-04-25T11:58:30.399Z,42.56
2019-04-25T12:01:36.036Z,39.24
2019-04-25T12:04:45.099Z,40.32
2019-04-25T12:07:48.391Z,44.09
2019-04-25T12:10:54.815Z,42.80
2019-04-25T12:14:00.176Z,44.73
2019-04-25T12:17:05.468Z,43.74
2019-04-25T12:20:11.009Z,43.94
2019-04-25T12:23:17.248Z,40.23
2019-04-25T12:26:24.303Z,42.24
2019-04-25T12:29:29.596Z,42.92
2019-04-25T12:32:35.225Z,44.26
2019-04-25T12:35:43.521Z,45.03
2019-04-25T12:38:48.741Z,43.49
2019-04-25T12:41:56.042Z,40.12
2019-04-25T12:45:11.198Z,44.17
2019-04-25T12:48:16.483Z,43.55
2019-04-25T12:51:21.778Z,42.34
2019-04-25T12:54:27.032Z,43.05
2019-04-25T12:57:32.326Z,42.64
2019-04-25T13:00:47.553Z,43.56
2019-04-25T13:03:44.721Z,43.44
2019-04-25T13:06:50.544Z,42.24
2019-04-25T13:09:56.106Z,44.10
2019-04-25T13:13:04.061Z,42.00
2019-04-25T13:16:09.476Z,43.69
2019-04-25T13:19:23.397Z,41.62
2019-04-25T13:22:22.151Z,42.76
2019-04-25T13:25:27.536Z,41.62
2019-04-25T13:28:51.191Z,42.72
2019-04-25T13:32:09.167Z,41.50
2019-04-25T13:35:27.383Z,39.22
2019-04-25T13:38:32.789Z,39.63
2019-04-25T13:41:38.257Z,37.99
2019-04-25T13:44:44.314Z,39.66
2019-04-25T13:47:49.727Z,37.32
2019-04-25T13:50:55.930Z,37.60
2019-04-25T13:54:03.282Z,39.32
2019-04-25T13:57:08.421Z,41.56
2019-04-25T14:00:14.287Z,41.31
2019-04-25T14:03:20.672Z,39.46
2019-04-25T14:06:28.807Z,38.07
2019-04-25T14:09:43.040Z,38.73
2019-04-25T14:12:50.001Z,38.33
2019-04-25T14:16:15.853Z,40.39
2019-04-25T14:19:44.282Z,38.88
2019-04-25T14:22:49.812Z,40.89
2019-04-25T14:25:55.158Z,44.27
2019-04-25T14:29:00.648Z,41.15
2019-04-25T14:32:08.161Z,42.26
2019-04-25T14:35:14.360Z,41.12
2019-04-25T14:38:19.863Z,40.50
2019-04-25T14:41:26.046Z,41.39
2019-04-25T14:44:35.587Z,41.67
2019-04-25T14:47:40.909Z,41.05
2019-04-25T14:50:48.523Z,41.49
2019-04-25T14:53:55.930Z,42.85
2019-04-25T14:57:10.653Z,42.44
2019-04-25T15:00:24.588Z,43.22
2019-04-25T15:03:29.907Z,40.77
2019-04-25T15:06:35.283Z,42.76
2019-04-25T15:09:40.538Z,39.94
2019-04-25T15:12:45.878Z,41.04
2019-04-25T15:15:51.268Z,39.02
2019-04-25T15:18:56.583Z,42.02
2019-04-25T15:22:01.807Z,41.26
2019-04-25T15:25:07.326Z,39.57
2019-04-25T15:28:12.718Z,39.57
2019-04-25T15:31:18.166Z,42.42
2019-04-25T15:34:25.984Z,39.63
2019-04-25T15:37:39.398Z,41.42
2019-04-25T15:40:54.267Z,39.45
2019-04-25T15:44:17.474Z,40.63
2019-04-25T15:47:27.610Z,43.42
2019-04-25T15:50:34.008Z,42.27
2019-04-25T15:53:40.254Z,40.92
2019-04-25T15:56:45.763Z,41.14
2019-04-25T15:59:51.098Z,41.30
2019-04-25T16:02:56.341Z,41.82
2019-04-25T16:06:01.731Z,40.99
2019-04-25T16:09:10.367Z,42.92
2019-04-25T16:12:16.121Z,42.11
2019-04-25T16:15:21.563Z,40.62
2019-04-25T16:18:27.324Z,41.79
2019-04-25T16:21:33.380Z,41.73
2019-04-25T16:24:38.853Z,40.28
2019-04-25T16:27:44.172Z,41.10
2019-04-25T16:30:49.478Z,41.35
2019-04-25T16:33:56.843Z,40.71
2019-04-25T16:37:02.158Z,40.06
2019-04-25T16:40:09.138Z,41.25
2019-04-25T16:43:17.852Z,41.87
2019-04-25T16:46:23.911Z,41.84
2019-04-25T16:49:29.975Z,41.24
2019-04-25T16:52:37.929Z,41.02
2019-04-25T16:55:42.447Z,41.91
2019-04-25T16:58:47.742Z,42.27
2019-04-25T17:01:53.023Z,43.20
2019-04-25T17:04:58.361Z,41.66
2019-04-25T17:08:05.071Z,40.92
2019-04-25T17:11:10.413Z,41.79
2019-04-25T17:14:25.081Z,44.51
2019-04-25T17:17:53.067Z,47.36
2019-04-25T17:21:06.131Z,47.92
2019-04-25T17:24:11.443Z,49.07
2019-04-25T17:27:18.017Z,49.58
2019-04-25T17:30:23.622Z,50.55
2019-04-25T17:33:45.327Z,50.96
2019-04-25T17:37:07.318Z,51.35
2019-04-25T17:40:18.807Z,52.10
2019-04-25T17:43:24.083Z,52.27
2019-04-25T17:46:29.470Z,52.99
2019-04-25T17:49:36.793Z,53.13
2019-04-25T17:52:43.047Z,52.44
2019-04-25T17:55:48.427Z,52.84
2019-04-25T17:58:53.761Z,53.69
2019-04-25T18:01:59.003Z,54.25
2019-04-25T18:05:04.559Z,55.49
2019-04-25T18:08:09.943Z,55.18
2019-04-25T18:11:16.314Z,55.93
2019-04-25T18:14:22.721Z,58.50
2019-04-25T18:17:28.256Z,56.58
2019-04-25T18:20:36.722Z,56.36
2019-04-25T18:23:59.961Z,60.20
2019-04-25T18:27:39.485Z,59.62
2019-04-25T18:30:46.581Z,61.23
2019-04-25T18:33:55.393Z,62.27
2019-04-25T18:37:18.541Z,63.50
2019-04-25T18:40:41.973Z,66.07
2019-04-25T18:43:51.373Z,63.58
2019-04-25T18:46:56.702Z,62.07
2019-04-25T18:50:02.226Z,63.38
2019-04-25T18:53:35.509Z,61.60
2019-04-25T18:57:15.204Z,59.13
2019-04-25T19:00:37.679Z,57.01
2019-04-25T19:03:51.354Z,54.87
2019-04-25T19:06:58.843Z,52.59
2019-04-25T19:10:06.981Z,52.02
2019-04-25T19:13:17.622Z,51.88
2019-04-25T19:16:27.663Z,50.97
2019-04-25T19:19:33.065Z,50.38
2019-04-25T19:22:40.136Z,53.60
2019-04-25T19:25:47.781Z,55.72
2019-04-25T19:28:53.411Z,55.70
2019-04-25T19:31:58.856Z,55.53
2019-04-25T19:36:04.366Z,56.05
2019-04-25T19:38:56.817Z,58.00
2019-04-25T19:42:26.228Z,57.21
2019-04-25T19:45:33.301Z,58.81
2019-04-25T19:48:38.846Z,62.25
2019-04-25T19:51:45.091Z,62.24
2019-04-25T19:54:53.101Z,61.59
2019-04-25T19:57:58.377Z,63.38
2019-04-25T20:01:03.880Z,65.32
2019-04-25T20:04:34.387Z,64.28
2019-04-25T20:07:46.611Z,64.86
2019-04-25T20:10:57.523Z,66.73
2019-04-25T20:14:02.912Z,68.34
2019-04-25T20:17:08.268Z,68.27
2019-04-25T20:20:14.029Z,67.70
2019-04-25T20:23:19.176Z,67.73
2019-04-25T20:26:24.546Z,61.87
2019-04-25T20:29:29.921Z,64.53
2019-04-25T20:32:40.431Z,59.05
2019-04-25T20:35:46.374Z,63.35
2019-04-25T20:38:53.320Z,61.82
2019-04-25T20:42:03.266Z,58.93
2019-04-25T20:45:11.551Z,58.45
2019-04-25T20:48:16.827Z,57.76
2019-04-25T20:51:22.259Z,54.52
2019-04-25T20:54:27.988Z,56.95
2019-04-25T20:57:34.336Z,61.20
2019-04-25T21:00:41.969Z,62.51
2019-04-25T21:03:47.535Z,60.78
2019-04-25T21:06:54.727Z,60.18
2019-04-25T21:10:00.203Z,59.43
2019-04-25T21:13:07.167Z,61.87
2019-04-25T21:16:37.654Z,64.64
2019-04-25T21:19:45.553Z,63.87
2019-04-25T21:22:51.755Z,64.09
2019-04-25T21:25:57.370Z,69.12
2019-04-25T21:29:04.288Z,72.08
2019-04-25T21:32:10.139Z,74.00
2019-04-25T21:35:18.482Z,71.96
2019-04-25T21:38:23.722Z,70.20
2019-04-25T21:41:45.238Z,70.42
2019-04-25T21:44:54.211Z,70.37
2019-04-25T21:47:59.586Z,71.56
2019-04-25T21:51:23.456Z,71.47
2019-04-25T21:54:30.123Z,72.11
2019-04-25T21:57:35.821Z,73.02
2019-04-25T22:01:04.463Z,73.98
2019-04-25T22:04:11.690Z,73.46
2019-04-25T22:07:17.425Z,74.07
2019-04-25T22:10:23.078Z,75.24
2019-04-25T22:13:32.445Z,76.20
2019-04-25T22:16:38.136Z,76.45
2019-04-25T22:19:48.398Z,77.29
2019-04-25T22:22:54.092Z,77.93
2019-04-25T22:25:59.531Z,78.86
2019-04-25T22:29:07.452Z,77.42
2019-04-25T22:32:32.911Z,77.29
2019-04-25T22:35:42.732Z,77.74
2019-04-25T22:39:07.151Z,77.50
2019-04-25T22:42:18.848Z,77.81
2019-04-25T22:45:25.182Z,79.90
2019-04-25T22:48:49.093Z,80.60
2019-04-25T22:51:54.336Z,80.07
2019-04-25T22:54:59.856Z,80.81
2019-04-25T22:58:06.140Z,81.17
2019-04-25T23:01:36.671Z,80.78
2019-04-25T23:05:16.050Z,81.22
2019-04-25T23:08:20.357Z,81.51
2019-04-25T23:11:28.667Z,82.33
2019-04-25T23:14:34.475Z,82.11
2019-04-25T23:17:45.977Z,83.48
2019-04-25T23:20:52.999Z,83.69
2019-04-25T23:24:01.170Z,85.04
2019-04-25T23:27:25.115Z,84.44
2019-04-25T23:30:38.383Z,84.11
2019-04-25T23:33:44.109Z,84.29
2019-04-25T23:36:54.080Z,84.98
2019-04-25T23:39:59.634Z,83.23
2019-04-25T23:43:07.471Z,84.55
2019-04-25T23:46:14.762Z,84.68
2019-04-25T23:49:21.275Z,84.24
2019-04-25T23:52:27.595Z,83.93
2019-04-25T23:55:33.314Z,84.72
2019-04-25T23:58:38.692Z,85.64
